Ясно с възможна ниска облачност
Ясно с възможна ниска облачност
Частична облачност
Частична облачност
Частична облачност
Частична облачност
Частична облачност
Частична облачност
Частична облачност
(°C)
22°
22°
22°
22°
22°
22°
22°
22°
22°
22°
21°
21°
21°
21°
21°
21°
21°
21°
(°C)
24°
24°
24°
24°
24°
24°
23°
23°
23°
ЮЗ
ЮЮЗ
ЮЮЗ
ЮЮЗ
ЮЮЗ
ЮЗ
ЗЮЗ
З
З
(km/h)
5-10
4-9
4-8
3-8
3-8
3-8
3-8
3-8
3-8
(мм)
0
0
0
0
0
0
0
0
0
(%)
1
1
1
1
0
0
0
0
0

Издигане на слънцето

/ -22.6°
sun-icon
UV 11
05:40
20:01
Намаляваща луна (212°)
22:46
08:14

METAR за Сан Диего (KSAN)

Час Условия Температура/
Точка на оросяване
Вятър Видимост Времето Облаци Налягане Промяна Сурови
VFR 21.7°C / 17.2°C 4kt >10km - Few Clouds 20000ft 1014 - KSAN 250451Z VRB04KT 10SM FEW200 22/17 A2995 RMK AO2 SLP140 T02170172 $
VFR 22.2°C / 17.8°C 200º 7kt >10km - Few Clouds 20000ft 1013 - KSAN 250351Z 20007KT 10SM FEW200 22/18 A2993 RMK AO2 SLP134 T02220178 $
VFR 22.8°C / 17.8°C 230º 7kt >10km - Few Clouds 1000ft
Few Clouds 20000ft
1012 - KSAN 250251Z 23007KT 10SM FEW010 FEW200 23/18 A2991 RMK AO2 SLP128 T02280178 53005 $
VFR 24.4°C / 15°C 300º 4kt >10km - Few Clouds 4000ft
Few Clouds 20000ft
1012 - KSAN 250151Z 30004KT 10SM FEW040 FEW200 24/15 A2990 RMK AO2 SLP123 T02440150 $
VFR 25.6°C / 15°C 280º 5kt >10km - Few Clouds 4000ft
Few Clouds 20000ft
1012 - KSAN 250051Z 28005KT 10SM FEW040 FEW200 26/15 A2989 RMK AO2 SLP121 T02560150 $
VFR 25.6°C / 15.6°C 280º 6kt >10km - Few Clouds 4000ft
Few Clouds 20000ft
1012 - KSAN 242351Z 28006KT 10SM FEW040 FEW200 26/16 A2989 RMK AO2 SLP122 T02560156 10272 20256 56003 $
VFR 26.1°C / 15.6°C 300º 8kt >10km - Few Clouds 4000ft
Few Clouds 20000ft
1012 - KSAN 242251Z 30008KT 10SM FEW040 FEW200 26/16 A2990 RMK AO2 SLP123 T02610156 $
VFR 26.1°C / 16.7°C 300º 7kt >10km - Few Clouds 4000ft
Scattered Clouds 20000ft
1012 - KSAN 242151Z 30007KT 10SM FEW040 SCT200 26/17 A2989 RMK AO2 SLP123 T02610167 $
VFR 26.7°C / 15.6°C 280º 8kt >10km - Few Clouds 4000ft
Scattered Clouds 20000ft
1012 - KSAN 242051Z 28008KT 10SM FEW040 SCT200 27/16 A2990 RMK AO2 SLP126 T02670156 58004 $
VFR 26.1°C / 17.2°C 280º 11kt Gust 19kt >10km - Few Clouds 4000ft
Scattered Clouds 20000ft
1012 - KSAN 241951Z 28011G19KT 10SM FEW040 SCT200 26/17 A2991 RMK AO2 SLP128 T02610172 $
VFR 26.7°C / 18.3°C 270º 7kt >10km - Few Clouds 4000ft
Scattered Clouds 20000ft
1013 - KSAN 241851Z 27007KT 10SM FEW040 SCT200 27/18 A2991 RMK AO2 SLP130 T02670183 $
VFR 26.7°C / 18.3°C 300º 6kt >10km - Few Clouds 15000ft
Scattered Clouds 20000ft
1013 - KSAN 241751Z 30006KT 10SM FEW150 SCT200 27/18 A2992 RMK AO2 SLP131 T02670183 10267 20206 58004 $
VFR 26.1°C / 18.3°C 290º 5kt >10km - Scattered Clouds 20000ft 1013 - KSAN 241651Z 29005KT 10SM SCT200 26/18 A2993 RMK AO2 SLP133 T02610183 $
VFR 24.4°C / 18.3°C 6kt >10km - Broken Clouds 20000ft 1013 - KSAN 241551Z VRB06KT 10SM BKN200 24/18 A2993 RMK AO2 SLP135 T02440183 $
VFR 22.8°C / 18.9°C 3kt >10km - Scattered Clouds 20000ft 1013 - KSAN 241451Z VRB03KT 10SM SCT200 23/19 A2993 RMK AO2 SLP135 T02280189 51003 $
VFR 21.7°C / 18.9°C 310º 5kt >10km - Few Clouds 1000ft
Scattered Clouds 20000ft
1013 - KSAN 241351Z 31005KT 10SM FEW010 SCT200 22/19 A2993 RMK AO2 SLP135 T02170189 $
VFR 20.6°C / 18.3°C 300º 3kt >10km - Scattered Clouds 15000ft 1013 - KSAN 241251Z 30003KT 10SM SCT150 21/18 A2993 RMK AO2 SLP133 T02060183 $
VFR 20.6°C / 17.8°C variable 0kt >10km - Few Clouds 15000ft 1013 - KSAN 241151Z 00000KT 10SM FEW150 21/18 A2992 RMK AO2 SLP132 T02060178 10222 20206 56001 $
VFR 20.6°C / 17.2°C variable 0kt >10km - Scattered Clouds 15000ft 1013 - KSAN 241051Z 00000KT 10SM SCT150 21/17 A2992 RMK AO2 SLP132 T02060172 $
VFR 21.1°C / 17.8°C 320º 3kt >10km - Broken Clouds 15000ft 1013 - KSAN 240951Z 32003KT 10SM BKN150 21/18 A2992 RMK AO2 SLP131 T02110178 $
VFR 21.7°C / 16.7°C variable 0kt >10km - Broken Clouds 15000ft 1013 - KSAN 240851Z 00000KT 10SM BKN150 22/17 A2992 RMK AO2 SLP132 T02170167 58005 $
VFR 21.7°C / 16.7°C variable 0kt >10km - Broken Clouds 15000ft 1013 - KSAN 240751Z 00000KT 10SM BKN150 22/17 A2994 RMK AO2 SLP137 T02170167 402890194 $
VFR 22.2°C / 17.2°C 170º 5kt >10km - Scattered Clouds 15000ft 1013 - KSAN 240651Z 17005KT 10SM SCT150 22/17 A2994 RMK AO2 SLP138 T02220172 $
VFR 21.7°C / 17.8°C variable 0kt >10km - Few Clouds 15000ft
Few Clouds 20000ft
1013 - KSAN 240551Z 00000KT 10SM FEW150 FEW200 22/18 A2994 RMK AO2 SLP138 T02170178 10261 20211 51013 $

VFR

21.7°C / 17.2°C

[Още]
Вятър 4kt
Видимост >10km
Времето -
Облаци Few Clouds 20000ft
Налягане 1014
Промяна -
Сурови KSAN 250451Z VRB04KT 10SM FEW200 22/17 A2995 RMK AO2 SLP140 T02170172 $

VFR

22.2°C / 17.8°C

[Още]
Вятър 200º 7kt
Видимост >10km
Времето -
Облаци Few Clouds 20000ft
Налягане 1013
Промяна -
Сурови KSAN 250351Z 20007KT 10SM FEW200 22/18 A2993 RMK AO2 SLP134 T02220178 $

VFR

22.8°C / 17.8°C

[Още]
Вятър 230º 7kt
Видимост >10km
Времето -
Облаци Few Clouds 1000ft
Few Clouds 20000ft
Налягане 1012
Промяна -
Сурови KSAN 250251Z 23007KT 10SM FEW010 FEW200 23/18 A2991 RMK AO2 SLP128 T02280178 53005 $

VFR

24.4°C / 15°C

[Още]
Вятър 300º 4kt
Видимост >10km
Времето -
Облаци Few Clouds 4000ft
Few Clouds 20000ft
Налягане 1012
Промяна -
Сурови KSAN 250151Z 30004KT 10SM FEW040 FEW200 24/15 A2990 RMK AO2 SLP123 T02440150 $

VFR

25.6°C / 15°C

[Още]
Вятър 280º 5kt
Видимост >10km
Времето -
Облаци Few Clouds 4000ft
Few Clouds 20000ft
Налягане 1012
Промяна -
Сурови KSAN 250051Z 28005KT 10SM FEW040 FEW200 26/15 A2989 RMK AO2 SLP121 T02560150 $

VFR

25.6°C / 15.6°C

[Още]
Вятър 280º 6kt
Видимост >10km
Времето -
Облаци Few Clouds 4000ft
Few Clouds 20000ft
Налягане 1012
Промяна -
Сурови KSAN 242351Z 28006KT 10SM FEW040 FEW200 26/16 A2989 RMK AO2 SLP122 T02560156 10272 20256 56003 $

VFR

26.1°C / 15.6°C

[Още]
Вятър 300º 8kt
Видимост >10km
Времето -
Облаци Few Clouds 4000ft
Few Clouds 20000ft
Налягане 1012
Промяна -
Сурови KSAN 242251Z 30008KT 10SM FEW040 FEW200 26/16 A2990 RMK AO2 SLP123 T02610156 $

VFR

26.1°C / 16.7°C

[Още]
Вятър 300º 7kt
Видимост >10km
Времето -
Облаци Few Clouds 4000ft
Scattered Clouds 20000ft
Налягане 1012
Промяна -
Сурови KSAN 242151Z 30007KT 10SM FEW040 SCT200 26/17 A2989 RMK AO2 SLP123 T02610167 $

VFR

26.7°C / 15.6°C

[Още]
Вятър 280º 8kt
Видимост >10km
Времето -
Облаци Few Clouds 4000ft
Scattered Clouds 20000ft
Налягане 1012
Промяна -
Сурови KSAN 242051Z 28008KT 10SM FEW040 SCT200 27/16 A2990 RMK AO2 SLP126 T02670156 58004 $

VFR

26.1°C / 17.2°C

[Още]
Вятър 280º 11kt Gust 19kt
Видимост >10km
Времето -
Облаци Few Clouds 4000ft
Scattered Clouds 20000ft
Налягане 1012
Промяна -
Сурови KSAN 241951Z 28011G19KT 10SM FEW040 SCT200 26/17 A2991 RMK AO2 SLP128 T02610172 $

VFR

26.7°C / 18.3°C

[Още]
Вятър 270º 7kt
Видимост >10km
Времето -
Облаци Few Clouds 4000ft
Scattered Clouds 20000ft
Налягане 1013
Промяна -
Сурови KSAN 241851Z 27007KT 10SM FEW040 SCT200 27/18 A2991 RMK AO2 SLP130 T02670183 $

VFR

26.7°C / 18.3°C

[Още]
Вятър 300º 6kt
Видимост >10km
Времето -
Облаци Few Clouds 15000ft
Scattered Clouds 20000ft
Налягане 1013
Промяна -
Сурови KSAN 241751Z 30006KT 10SM FEW150 SCT200 27/18 A2992 RMK AO2 SLP131 T02670183 10267 20206 58004 $

VFR

26.1°C / 18.3°C

[Още]
Вятър 290º 5kt
Видимост >10km
Времето -
Облаци Scattered Clouds 20000ft
Налягане 1013
Промяна -
Сурови KSAN 241651Z 29005KT 10SM SCT200 26/18 A2993 RMK AO2 SLP133 T02610183 $

VFR

24.4°C / 18.3°C

[Още]
Вятър 6kt
Видимост >10km
Времето -
Облаци Broken Clouds 20000ft
Налягане 1013
Промяна -
Сурови KSAN 241551Z VRB06KT 10SM BKN200 24/18 A2993 RMK AO2 SLP135 T02440183 $

VFR

22.8°C / 18.9°C

[Още]
Вятър 3kt
Видимост >10km
Времето -
Облаци Scattered Clouds 20000ft
Налягане 1013
Промяна -
Сурови KSAN 241451Z VRB03KT 10SM SCT200 23/19 A2993 RMK AO2 SLP135 T02280189 51003 $

VFR

21.7°C / 18.9°C

[Още]
Вятър 310º 5kt
Видимост >10km
Времето -
Облаци Few Clouds 1000ft
Scattered Clouds 20000ft
Налягане 1013
Промяна -
Сурови KSAN 241351Z 31005KT 10SM FEW010 SCT200 22/19 A2993 RMK AO2 SLP135 T02170189 $

VFR

20.6°C / 18.3°C

[Още]
Вятър 300º 3kt
Видимост >10km
Времето -
Облаци Scattered Clouds 15000ft
Налягане 1013
Промяна -
Сурови KSAN 241251Z 30003KT 10SM SCT150 21/18 A2993 RMK AO2 SLP133 T02060183 $

VFR

20.6°C / 17.8°C

[Още]
Вятър variable 0kt
Видимост >10km
Времето -
Облаци Few Clouds 15000ft
Налягане 1013
Промяна -
Сурови KSAN 241151Z 00000KT 10SM FEW150 21/18 A2992 RMK AO2 SLP132 T02060178 10222 20206 56001 $

VFR

20.6°C / 17.2°C

[Още]
Вятър variable 0kt
Видимост >10km
Времето -
Облаци Scattered Clouds 15000ft
Налягане 1013
Промяна -
Сурови KSAN 241051Z 00000KT 10SM SCT150 21/17 A2992 RMK AO2 SLP132 T02060172 $

VFR

21.1°C / 17.8°C

[Още]
Вятър 320º 3kt
Видимост >10km
Времето -
Облаци Broken Clouds 15000ft
Налягане 1013
Промяна -
Сурови KSAN 240951Z 32003KT 10SM BKN150 21/18 A2992 RMK AO2 SLP131 T02110178 $

VFR

21.7°C / 16.7°C

[Още]
Вятър variable 0kt
Видимост >10km
Времето -
Облаци Broken Clouds 15000ft
Налягане 1013
Промяна -
Сурови KSAN 240851Z 00000KT 10SM BKN150 22/17 A2992 RMK AO2 SLP132 T02170167 58005 $

VFR

21.7°C / 16.7°C

[Още]
Вятър variable 0kt
Видимост >10km
Времето -
Облаци Broken Clouds 15000ft
Налягане 1013
Промяна -
Сурови KSAN 240751Z 00000KT 10SM BKN150 22/17 A2994 RMK AO2 SLP137 T02170167 402890194 $

VFR

22.2°C / 17.2°C

[Още]
Вятър 170º 5kt
Видимост >10km
Времето -
Облаци Scattered Clouds 15000ft
Налягане 1013
Промяна -
Сурови KSAN 240651Z 17005KT 10SM SCT150 22/17 A2994 RMK AO2 SLP138 T02220172 $

VFR

21.7°C / 17.8°C

[Още]
Вятър variable 0kt
Видимост >10km
Времето -
Облаци Few Clouds 15000ft
Few Clouds 20000ft
Налягане 1013
Промяна -
Сурови KSAN 240551Z 00000KT 10SM FEW150 FEW200 22/18 A2994 RMK AO2 SLP138 T02170178 10261 20211 51013 $

TAF за Сан Диего (KSAN)

From till


From till Wind 4kt. Visibility 9700m. Few Clouds 20000ft.
Temporarly from till Scattered Clouds 700ft.
From till Wind 260º 10kt. Visibility 9700m. Scattered Clouds 15000ft.
From till Wind 4kt. Visibility 9700m. Scattered Clouds 15000ft.

Сурови: KSAN 250253Z 2503/2606 VRB04KT P6SM FEW200 TEMPO 2511/2515 SCT007 FM251900 26010KT P6SM SCT150 FM260200 VRB04KT P6SM SCT150

rainNOW: Дъжд в момента за Сан Диего и околности (радиус 25 км)

0.0 мм
0.0 мм
0.0 мм
0.0 мм
0.0 мм
0.0 мм
0.0 мм
0.0 мм
0.0 мм
0.0 мм
0.0 мм
0.0 мм

Радар и валежи в момента за Сан Диего

Ситен дъжд
Лек
Умерен
Силен
Много силен
Аве

Маркерът за локация обозначава Сан Диего. Тази анимация показва радара за валежи за избрания времеви диапазон, както и 1h прогноза. Оранжеви кръстчета показват мълнии. Данните са предоставени от nowcast.de (налични в САЩ, Европа и Австралия). Дъждът или лекият сняг може да са невидими за радара. Интензивността на валежите е обозначена с цветни кодове, вариращи от тюркоазено до червено.

Актуални сателитни изображения за Сан Диего, САЩ

Маркерът за локация е поставен върху Сан Диего. [Още]

Сателитното изображение в реално време съчетава видимата светлина през деня с инфрачервеното лъчение през нощта. През нощта изображението не е тъмно, тъй като инфрачервеното лъчение може да открива температурни разлики. За съжаление ниските облаци и мъглата са трудни за разграничаване от температурите на земята и затова могат да бъдат почти невидими през нощта. Сателитните изображения на Meteosat за Европа се актуализират в реално време на всеки 5 минути. Изображенията GOES-16/GOES-17 (Северна и Южна Америка) и Химавари (Азия) се актуализират на всеки 10 минути.

Количеството на валежите се изчислява от радари и спътници. Оценките на валежите от сателити са по-малко точни през нощта, отколкото през деня.

© 2024 meteoblue, NOAA Satellites GOES-16 and EUMETSAT. Данни за светкавици, предоставени от nowcast.

Върнете се в началото
×
Здравейте,
изглежда, че използвате рекламен блокер.

Рекламата е от съществено значение за поддържането на нашия безплатен уебсайт с уникални подробности и точност.

Моля, включете www.meteoblue.com в белия списък на вашия блокер на реклами или помислете за закупуване на някой от нашите продукти:

Вече имате абонамент?
Тогава, моля, влезте.